Time;durP1;ratioP1;P1;durP2;ratioP2;P2;SDS_P1;SDS_P2;PMS_P1;PMS_P2;Temp;Humidity;BMP_temperature;BMP_pressure;BME280_temperature;BME280_humidity;BME280_pressure;Samples;Min_cycle;Max_cycle;Signal;HPM_P1;HPM_P2
2022/10/10 00:01:34;;;;;;;11.90;6.72;;;11.90;99.90;;;;;;5094253;28;20192;-72
2022/10/10 00:04:00;;;;;;;11.30;6.50;;;11.90;99.90;;;;;;5113146;28;20197;-73
2022/10/10 00:06:27;;;;;;;11.15;6.25;;;11.90;99.90;;;;;;5109195;28;20248;-70
2022/10/10 00:08:53;;;;;;;10.55;6.50;;;11.90;99.90;;;;;;5099482;28;20660;-72
2022/10/10 00:11:21;;;;;;;14.43;7.20;;;11.90;99.90;;;;;;5092730;28;20182;-72
2022/10/10 00:13:48;;;;;;;11.88;6.72;;;11.80;99.90;;;;;;5091588;28;20220;-72
2022/10/10 00:16:15;;;;;;;14.38;6.07;;;11.90;99.90;;;;;;5092589;28;20178;-72
2022/10/10 00:18:41;;;;;;;12.18;6.40;;;11.90;99.90;;;;;;5096007;28;20186;-72
2022/10/10 00:21:08;;;;;;;12.00;6.97;;;11.90;99.90;;;;;;5092418;28;20170;-72
2022/10/10 00:23:34;;;;;;;12.40;6.70;;;11.90;99.90;;;;;;5094685;28;20184;-72
2022/10/10 00:26:00;;;;;;;12.65;6.85;;;11.80;99.90;;;;;;5096421;28;20173;-72
2022/10/10 00:28:26;;;;;;;18.35;7.03;;;11.80;99.90;;;;;;5104316;28;20216;-71
2022/10/10 00:30:52;;;;;;;14.63;6.88;;;11.80;99.90;;;;;;5110465;28;20268;-69
2022/10/10 00:33:18;;;;;;;10.07;7.38;;;11.80;99.90;;;;;;5115325;28;20183;-72
2022/10/10 00:35:44;;;;;;;11.60;6.90;;;11.80;99.90;;;;;;5116655;28;20188;-72
2022/10/10 00:38:10;;;;;;;12.90;7.20;;;11.70;99.90;;;;;;5112710;28;20180;-72
2022/10/10 00:40:45;;;;;;;12.05;7.00;;;11.70;99.90;;;;;;5108643;28;20230;-72
2022/10/10 00:43:12;;;;;;;15.38;7.05;;;11.70;99.90;;;;;;5107582;28;20255;-70
2022/10/10 00:45:40;;;;;;;16.15;7.43;;;11.70;99.90;;;;;;5115997;28;20165;-72
2022/10/10 00:48:18;;;;;;;10.02;6.65;;;11.70;99.90;;;;;;5116445;28;20236;-69
2022/10/10 00:50:53;;;;;;;13.73;7.53;;;11.70;99.90;;;;;;5109109;28;20180;-72
2022/10/10 00:53:24;;;;;;;12.32;7.20;;;11.60;99.90;;;;;;5114855;28;20586;-72
2022/10/10 00:55:52;;;;;;;11.25;6.78;;;11.60;99.90;;;;;;5115867;28;20172;-73
2022/10/10 00:58:19;;;;;;;12.88;7.03;;;11.60;99.90;;;;;;5114772;28;20181;-72
2022/10/10 01:00:45;;;;;;;10.32;7.15;;;11.60;99.90;;;;;;5114896;28;20186;-72
2022/10/10 01:03:10;;;;;;;12.43;7.25;;;11.60;99.90;;;;;;5115702;28;20173;-72
2022/10/10 01:05:36;;;;;;;11.15;6.75;;;11.60;99.90;;;;;;5116213;28;20624;-72
2022/10/10 01:08:04;;;;;;;12.30;7.18;;;11.50;99.90;;;;;;5102285;28;20243;-71
2022/10/10 01:10:39;;;;;;;12.70;7.10;;;11.50;99.90;;;;;;5102640;28;20185;-71
2022/10/10 01:13:24;;;;;;;13.52;7.10;;;11.50;99.90;;;;;;5110487;28;20208;-71
2022/10/10 01:16:08;;;;;;;13.80;7.70;;;11.50;99.90;;;;;;5115043;28;20161;-72
2022/10/10 01:18:44;;;;;;;11.45;7.70;;;11.50;99.90;;;;;;5115411;27;20176;-71
2022/10/10 01:21:18;;;;;;;13.77;7.45;;;11.40;99.90;;;;;;5111421;28;20192;-70
2022/10/10 01:24:04;;;;;;;12.93;7.43;;;11.40;99.90;;;;;;5113730;28;20202;-71
2022/10/10 01:26:48;;;;;;;11.40;7.40;;;11.40;99.90;;;;;;5114126;28;20168;-71
2022/10/10 01:29:24;;;;;;;13.13;7.38;;;11.40;99.90;;;;;;5111001;28;20181;-71
2022/10/10 01:31:54;;;;;;;16.25;7.50;;;11.40;99.90;;;;;;5109527;28;20192;-70
2022/10/10 01:34:41;;;;;;;12.30;7.25;;;11.40;99.90;;;;;;5108027;28;20197;-70
2022/10/10 01:37:19;;;;;;;11.70;7.38;;;11.40;99.90;;;;;;5113932;28;20282;-71
2022/10/10 01:39:59;;;;;;;16.38;7.45;;;11.40;99.90;;;;;;5115900;27;20192;-71
2022/10/10 01:42:34;;;;;;;13.90;7.90;;;11.40;99.90;;;;;;5102352;28;20205;-71
2022/10/10 01:44:59;;;;;;;11.70;7.28;;;11.30;99.90;;;;;;5115159;28;20175;-71
2022/10/10 01:47:25;;;;;;;12.57;7.88;;;11.30;99.90;;;;;;5105070;28;20302;-71
2022/10/10 01:49:55;;;;;;;14.63;7.63;;;11.30;99.90;;;;;;5094374;28;20186;-71
2022/10/10 01:52:42;;;;;;;13.63;7.53;;;11.30;99.90;;;;;;5101994;28;20201;-71
2022/10/10 01:55:39;;;;;;;12.77;7.60;;;11.30;99.90;;;;;;5111989;28;20588;-71
2022/10/10 01:58:11;;;;;;;14.15;7.22;;;11.30;99.90;;;;;;5114744;28;20195;-71
2022/10/10 02:00:48;;;;;;;12.25;7.50;;;11.20;99.90;;;;;;5114553;28;20256;-71
2022/10/10 02:03:29;;;;;;;13.95;7.82;;;11.20;99.90;;;;;;5110865;28;20173;-67
2022/10/10 02:06:08;;;;;;;11.60;7.80;;;11.20;99.90;;;;;;5111460;28;20185;-69
2022/10/10 02:08:39;;;;;;;13.98;8.15;;;11.10;99.90;;;;;;5113938;28;20212;-70
2022/10/10 02:11:08;;;;;;;14.15;8.27;;;11.20;99.90;;;;;;5114996;28;20654;-70
2022/10/10 02:13:43;;;;;;;12.55;7.53;;;11.10;99.90;;;;;;5110893;27;20177;-71
2022/10/10 02:16:24;;;;;;;11.23;7.88;;;11.10;99.90;;;;;;5108191;28;20184;-71
2022/10/10 02:18:52;;;;;;;14.27;7.85;;;11.10;99.90;;;;;;5094374;28;20188;-70
2022/10/10 02:21:20;;;;;;;12.48;7.40;;;11.10;99.90;;;;;;5093038;28;20653;-70
2022/10/10 02:23:49;;;;;;;12.40;8.52;;;11.10;99.90;;;;;;5094498;28;20251;-70
2022/10/10 02:26:17;;;;;;;11.40;7.75;;;11.10;99.90;;;;;;5093986;28;20174;-70
2022/10/10 02:28:53;;;;;;;11.20;8.20;;;11.00;99.90;;;;;;5093901;28;20213;-70
2022/10/10 02:31:50;;;;;;;11.98;8.02;;;11.10;99.90;;;;;;5093893;28;20211;-70
2022/10/10 02:34:19;;;;;;;13.40;8.27;;;11.00;99.90;;;;;;5098323;28;20181;-69
2022/10/10 02:36:50;;;;;;;13.82;8.70;;;11.00;99.90;;;;;;5110051;28;20207;-70
2022/10/10 02:39:18;;;;;;;13.70;8.40;;;11.00;99.90;;;;;;5113065;28;20175;-70
2022/10/10 02:41:45;;;;;;;13.23;8.23;;;11.00;99.90;;;;;;5103819;28;20165;-70
2022/10/10 02:44:13;;;;;;;13.00;8.57;;;10.90;99.90;;;;;;5107496;28;20692;-70
2022/10/10 02:46:39;;;;;;;18.50;8.80;;;10.90;99.90;;;;;;5105348;28;20710;-68
2022/10/10 02:49:07;;;;;;;15.32;8.25;;;10.90;99.90;;;;;;5093752;28;20189;-70
2022/10/10 02:51:33;;;;;;;12.05;8.35;;;10.80;99.90;;;;;;5107614;28;20729;-70
2022/10/10 02:53:59;;;;;;;16.48;8.27;;;10.90;99.90;;;;;;5113182;28;20173;-70
2022/10/10 02:56:25;;;;;;;13.35;8.93;;;10.80;99.90;;;;;;5107160;28;20633;-70
2022/10/10 02:58:51;;;;;;;18.63;8.75;;;10.80;99.90;;;;;;5112469;28;20631;-71
2022/10/10 03:01:17;;;;;;;15.75;8.50;;;10.80;99.90;;;;;;5112387;28;20181;-70
2022/10/10 03:03:42;;;;;;;15.63;9.07;;;10.70;99.90;;;;;;5114059;28;20247;-70
2022/10/10 03:06:08;;;;;;;12.77;8.77;;;10.80;99.90;;;;;;5106009;28;20181;-66
2022/10/10 03:08:37;;;;;;;13.20;8.40;;;10.80;99.90;;;;;;5111011;28;20213;-70
2022/10/10 03:11:04;;;;;;;14.45;8.70;;;10.70;99.90;;;;;;5110076;28;20186;-70
2022/10/10 03:13:29;;;;;;;14.63;8.32;;;10.70;99.90;;;;;;5104838;28;20269;-71
2022/10/10 03:15:55;;;;;;;15.52;8.40;;;10.70;99.90;;;;;;5097228;28;20305;-67
2022/10/10 03:18:22;;;;;;;12.60;8.15;;;10.70;99.90;;;;;;5104912;28;20196;-71
2022/10/10 03:20:53;;;;;;;13.90;9.25;;;10.70;99.90;;;;;;5112346;28;20652;-72
2022/10/10 03:23:20;;;;;;;13.75;9.10;;;10.60;99.90;;;;;;5094054;28;20261;-71
2022/10/10 03:25:46;;;;;;;16.02;9.88;;;10.60;99.90;;;;;;5092991;28;20260;-71
2022/10/10 03:28:12;;;;;;;14.43;9.35;;;10.60;99.90;;;;;;5107126;28;20357;-70
2022/10/10 03:30:38;;;;;;;13.63;9.10;;;10.60;99.90;;;;;;5113818;28;20521;-71
2022/10/10 03:33:05;;;;;;;14.23;9.20;;;10.50;99.90;;;;;;5111723;28;20177;-71
2022/10/10 03:35:31;;;;;;;17.13;9.40;;;10.50;99.90;;;;;;5113419;28;20199;-70
2022/10/10 03:37:57;;;;;;;15.82;8.88;;;10.50;99.90;;;;;;5109170;28;20189;-70
2022/10/10 03:40:23;;;;;;;13.93;9.43;;;10.50;99.90;;;;;;5106064;28;20186;-70
2022/10/10 03:42:49;;;;;;;14.63;8.88;;;10.40;99.90;;;;;;5111263;28;20173;-71
2022/10/10 03:45:14;;;;;;;18.23;9.48;;;10.40;99.90;;;;;;5113063;28;20196;-71
2022/10/10 03:47:40;;;;;;;12.57;8.77;;;10.40;99.90;;;;;;5108825;28;20225;-70
2022/10/10 03:50:07;;;;;;;14.75;9.43;;;10.40;99.90;;;;;;5109499;28;20192;-68
2022/10/10 03:52:32;;;;;;;14.60;9.05;;;10.30;99.90;;;;;;5112908;28;20238;-70
2022/10/10 03:54:58;;;;;;;15.30;10.05;;;10.30;99.90;;;;;;5112601;28;20545;-71
2022/10/10 03:57:24;;;;;;;14.18;8.85;;;10.30;99.90;;;;;;5115323;28;20239;-71
2022/10/10 03:59:50;;;;;;;20.60;9.75;;;10.30;99.90;;;;;;5108945;28;20174;-68
2022/10/10 04:02:15;;;;;;;17.05;10.20;;;10.30;99.90;;;;;;5109805;28;20185;-71
2022/10/10 04:04:41;;;;;;;13.65;9.07;;;10.20;99.90;;;;;;5112341;27;20292;-70
2022/10/10 04:07:07;;;;;;;16.98;9.73;;;10.20;99.90;;;;;;5111690;28;20699;-71
2022/10/10 04:09:33;;;;;;;19.67;10.05;;;10.20;99.90;;;;;;5112589;28;20578;-71
2022/10/10 04:11:58;;;;;;;14.20;9.50;;;10.20;99.90;;;;;;5114416;28;20189;-70
2022/10/10 04:14:25;;;;;;;15.02;9.20;;;10.20;99.90;;;;;;5114839;28;20178;-70
2022/10/10 04:16:50;;;;;;;14.95;9.82;;;10.20;99.90;;;;;;5117291;28;20169;-70
2022/10/10 04:19:16;;;;;;;18.58;9.07;;;10.20;99.90;;;;;;5113249;28;20521;-70
2022/10/10 04:21:43;;;;;;;15.07;9.70;;;10.20;99.90;;;;;;5116852;28;20181;-69
2022/10/10 04:24:08;;;;;;;16.60;9.57;;;10.20;99.90;;;;;;5112072;28;21216;-70
2022/10/10 04:26:34;;;;;;;17.15;9.93;;;10.20;99.90;;;;;;5110029;28;20185;-71
2022/10/10 04:29:00;;;;;;;13.02;9.93;;;10.20;99.90;;;;;;5116034;28;20181;-71
2022/10/10 04:31:26;;;;;;;18.20;9.98;;;10.20;99.90;;;;;;5114065;28;20238;-70
2022/10/10 04:33:51;;;;;;;16.65;10.65;;;10.20;99.90;;;;;;5108988;28;20260;-70
2022/10/10 04:36:17;;;;;;;16.77;10.27;;;10.20;99.90;;;;;;5114660;28;20185;-70
2022/10/10 04:38:43;;;;;;;16.80;10.05;;;10.10;99.90;;;;;;5115190;28;20221;-70
2022/10/10 04:41:09;;;;;;;17.52;10.10;;;10.10;99.90;;;;;;5105718;28;20663;-70
2022/10/10 04:43:35;;;;;;;16.73;9.80;;;10.20;99.90;;;;;;5101149;28;20185;-66
2022/10/10 04:46:01;;;;;;;14.38;9.07;;;10.10;99.90;;;;;;5110550;28;20184;-69
2022/10/10 04:48:27;;;;;;;16.40;10.15;;;10.10;99.90;;;;;;5116264;28;20731;-70
2022/10/10 04:50:57;;;;;;;13.98;10.10;;;10.10;99.90;;;;;;5104360;28;20286;-70
2022/10/10 04:53:24;;;;;;;17.85;9.05;;;10.10;99.90;;;;;;5097522;28;20178;-69
2022/10/10 04:55:50;;;;;;;14.93;10.55;;;10.10;99.90;;;;;;5110224;28;20177;-70
2022/10/10 04:58:17;;;;;;;20.60;10.32;;;10.10;99.90;;;;;;5110276;28;20556;-69
2022/10/10 05:00:43;;;;;;;16.02;10.63;;;10.10;99.90;;;;;;5112994;28;20184;-70
2022/10/10 05:03:11;;;;;;;16.25;10.43;;;10.10;99.90;;;;;;5098545;28;20181;-64
2022/10/10 05:05:38;;;;;;;19.60;10.38;;;10.00;99.90;;;;;;5110382;28;20173;-69
2022/10/10 05:08:04;;;;;;;19.40;11.10;;;10.00;99.90;;;;;;5115534;28;20216;-70
2022/10/10 05:10:36;;;;;;;18.25;10.20;;;10.00;99.90;;;;;;5116291;28;20170;-69
2022/10/10 05:13:02;;;;;;;18.13;9.95;;;10.00;99.90;;;;;;5110806;28;20177;-76
2022/10/10 05:15:27;;;;;;;17.52;10.57;;;10.00;99.90;;;;;;5104552;28;20185;-71
2022/10/10 05:17:53;;;;;;;20.40;10.50;;;10.00;99.90;;;;;;5102195;28;20190;-72
2022/10/10 05:20:19;;;;;;;15.52;10.43;;;10.00;99.90;;;;;;5095496;28;20178;-71
2022/10/10 05:22:45;;;;;;;19.95;11.48;;;10.00;99.90;;;;;;5099451;28;20276;-74
2022/10/10 05:25:11;;;;;;;17.85;10.95;;;10.00;99.90;;;;;;5112471;28;20192;-73
2022/10/10 05:27:36;;;;;;;22.90;11.15;;;10.00;99.90;;;;;;5112356;28;20213;-70
2022/10/10 05:30:03;;;;;;;19.02;10.85;;;9.90;99.90;;;;;;5096023;28;20550;-69
2022/10/10 05:32:29;;;;;;;19.10;11.02;;;9.90;99.90;;;;;;5099973;28;20193;-66
2022/10/10 05:34:54;;;;;;;23.55;11.13;;;9.90;99.90;;;;;;5103306;28;20174;-68
2022/10/10 05:37:20;;;;;;;17.17;10.57;;;9.80;99.90;;;;;;5098677;28;20671;-67
2022/10/10 05:39:47;;;;;;;21.52;11.20;;;9.90;99.90;;;;;;5092593;28;20178;-66
2022/10/10 05:42:13;;;;;;;16.38;10.75;;;9.80;99.90;;;;;;5107255;28;20209;-68
2022/10/10 05:44:39;;;;;;;18.73;11.00;;;9.80;99.90;;;;;;5093376;28;20540;-67
2022/10/10 05:47:05;;;;;;;18.98;11.38;;;9.80;99.90;;;;;;5093402;28;20665;-69
2022/10/10 05:49:30;;;;;;;17.05;10.65;;;9.80;99.90;;;;;;5095412;28;20272;-69
2022/10/10 05:51:56;;;;;;;16.92;10.48;;;9.80;99.90;;;;;;5098631;28;20199;-66
2022/10/10 05:54:22;;;;;;;16.77;10.93;;;9.80;99.90;;;;;;5102275;28;20264;-72
2022/10/10 05:56:48;;;;;;;17.95;11.52;;;9.80;99.90;;;;;;5114490;28;20595;-71
2022/10/10 05:59:13;;;;;;;16.55;11.13;;;9.80;99.90;;;;;;5113803;28;20671;-68
2022/10/10 06:01:39;;;;;;;22.90;11.38;;;9.80;99.90;;;;;;5113918;28;20641;-68
2022/10/10 06:04:05;;;;;;;18.67;11.43;;;9.80;99.90;;;;;;5097321;28;20205;-67
2022/10/10 06:06:31;;;;;;;19.17;11.55;;;9.80;99.90;;;;;;5099747;28;20252;-71
2022/10/10 06:08:58;;;;;;;21.50;11.05;;;9.70;99.90;;;;;;5112072;28;20322;-75
2022/10/10 06:11:24;;;;;;;21.80;11.70;;;9.70;99.90;;;;;;5096493;28;20187;-73
2022/10/10 06:13:53;;;;;;;19.13;11.48;;;9.70;99.90;;;;;;5112183;28;20268;-69
2022/10/10 06:16:23;;;;;;;22.27;11.40;;;9.60;99.90;;;;;;5098127;28;20186;-74
2022/10/10 06:18:49;;;;;;;21.05;11.82;;;9.60;99.90;;;;;;5095440;27;20637;-73
2022/10/10 06:21:15;;;;;;;18.35;11.70;;;9.60;99.90;;;;;;5094105;28;20185;-69
2022/10/10 06:23:41;;;;;;;20.95;12.07;;;9.60;99.90;;;;;;5095310;28;20181;-73
2022/10/10 06:26:07;;;;;;;20.60;11.55;;;9.60;99.90;;;;;;5105369;28;20742;-74
2022/10/10 06:28:34;;;;;;;22.08;11.68;;;9.60;99.90;;;;;;5112357;28;20212;-64
2022/10/10 06:31:01;;;;;;;24.58;11.43;;;9.70;99.90;;;;;;5110374;28;20654;-73
2022/10/10 06:33:27;;;;;;;19.08;11.65;;;9.70;99.90;;;;;;5114143;28;20173;-73
2022/10/10 06:35:53;;;;;;;20.65;11.65;;;9.70;99.90;;;;;;5100729;27;20203;-73
2022/10/10 06:38:19;;;;;;;22.63;12.43;;;9.80;99.90;;;;;;5093181;28;20190;-73
2022/10/10 06:40:46;;;;;;;21.55;12.00;;;9.80;99.90;;;;;;5104570;28;20534;-65
2022/10/10 06:43:14;;;;;;;22.42;11.90;;;9.90;99.90;;;;;;5104343;28;20173;-71
2022/10/10 06:45:45;;;;;;;25.95;12.80;;;9.90;99.90;;;;;;5105022;28;20174;-69
2022/10/10 06:48:13;;;;;;;23.25;11.52;;;9.90;99.90;;;;;;5099057;28;20665;-70
2022/10/10 06:50:38;;;;;;;21.30;11.73;;;10.00;99.90;;;;;;5105956;28;20189;-69
2022/10/10 06:53:05;;;;;;;17.80;11.43;;;9.90;99.90;;;;;;5096336;28;20259;-65
2022/10/10 06:55:31;;;;;;;18.15;11.68;;;10.00;99.90;;;;;;5105277;28;20193;-67
2022/10/10 06:57:57;;;;;;;19.38;11.57;;;10.00;99.90;;;;;;5100435;28;20185;-72
2022/10/10 07:00:23;;;;;;;21.35;12.27;;;10.00;99.90;;;;;;5096685;28;21183;-72
2022/10/10 07:02:49;;;;;;;19.25;11.63;;;10.10;99.90;;;;;;5099510;28;20641;-72
2022/10/10 07:05:16;;;;;;;22.10;11.50;;;10.20;99.90;;;;;;5100616;28;20202;-69
2022/10/10 07:07:43;;;;;;;18.85;11.60;;;10.20;99.90;;;;;;5097301;28;20295;-75
2022/10/10 07:10:14;;;;;;;25.77;12.80;;;10.20;99.90;;;;;;5113005;28;20193;-70
2022/10/10 07:12:40;;;;;;;32.83;12.27;;;10.30;99.90;;;;;;5114024;28;20177;-70
2022/10/10 07:15:06;;;;;;;20.35;12.38;;;10.30;99.90;;;;;;5113947;28;20188;-72
2022/10/10 07:17:32;;;;;;;21.90;12.30;;;10.40;99.90;;;;;;5105377;28;20189;-67
2022/10/10 07:19:58;;;;;;;18.77;11.77;;;10.40;99.90;;;;;;5103876;28;20185;-65
2022/10/10 07:22:24;;;;;;;23.02;12.20;;;10.50;99.90;;;;;;5105754;28;20276;-62
2022/10/10 07:24:50;;;;;;;21.38;12.15;;;10.50;99.90;;;;;;5101703;28;20170;-69
2022/10/10 07:27:16;;;;;;;21.92;12.60;;;10.60;99.90;;;;;;5099560;28;20642;-71
2022/10/10 07:29:42;;;;;;;19.95;11.95;;;10.60;99.90;;;;;;5104298;28;20181;-66
2022/10/10 07:32:08;;;;;;;26.88;12.70;;;10.70;99.90;;;;;;5111835;28;20660;-69
2022/10/10 07:34:37;;;;;;;18.00;12.07;;;10.70;99.90;;;;;;5097803;28;20189;-74
2022/10/10 07:37:03;;;;;;;20.92;11.98;;;10.80;99.90;;;;;;5102538;28;20254;-67
2022/10/10 07:39:28;;;;;;;25.17;11.95;;;10.80;99.90;;;;;;5107335;28;20185;-77
2022/10/10 07:41:54;;;;;;;19.67;12.13;;;10.90;99.90;;;;;;5115154;28;20212;-79
2022/10/10 07:44:20;;;;;;;20.95;11.68;;;10.90;99.90;;;;;;5116402;28;20181;-77
2022/10/10 07:46:46;;;;;;;23.17;12.15;;;11.00;99.90;;;;;;5114697;28;20185;-77
2022/10/10 07:49:12;;;;;;;22.95;12.23;;;11.00;99.90;;;;;;5119751;28;20189;-76
2022/10/10 07:51:38;;;;;;;19.13;12.70;;;11.10;99.90;;;;;;5128006;28;20181;-76
2022/10/10 07:54:04;;;;;;;17.13;11.73;;;11.10;99.90;;;;;;5099136;28;20177;-75
2022/10/10 07:56:29;;;;;;;18.77;12.20;;;11.10;99.90;;;;;;5101738;28;20647;-76
2022/10/10 07:58:55;;;;;;;22.85;12.60;;;11.20;99.90;;;;;;5114778;27;20189;-72
2022/10/10 08:01:21;;;;;;;24.02;12.70;;;11.20;99.90;;;;;;5118210;28;20165;-74
2022/10/10 08:03:48;;;;;;;21.48;12.63;;;11.20;99.90;;;;;;5113484;28;20515;-77
2022/10/10 08:06:15;;;;;;;19.27;11.88;;;11.30;99.90;;;;;;5106958;28;20192;-73
2022/10/10 08:08:43;;;;;;;29.83;11.70;;;11.30;99.90;;;;;;5106833;28;20205;-74
2022/10/10 08:11:09;;;;;;;18.85;12.48;;;11.30;99.90;;;;;;5096820;28;20201;-75
2022/10/10 08:13:36;;;;;;;19.80;13.13;;;11.40;99.90;;;;;;5096528;28;20170;-63
2022/10/10 08:16:03;;;;;;;24.60;13.50;;;11.40;99.90;;;;;;5110242;28;20180;-66
2022/10/10 08:18:29;;;;;;;23.77;13.43;;;11.40;99.90;;;;;;5107920;28;20304;-67
2022/10/10 08:21:16;;;;;;;22.75;12.50;;;11.50;99.90;;;;;;5113921;28;20322;-71
2022/10/10 08:23:41;;;;;;;17.95;12.25;;;11.50;99.90;;;;;;5113020;28;20635;-75
2022/10/10 08:26:09;;;;;;;21.48;13.45;;;11.60;99.90;;;;;;5100927;28;20178;-68
2022/10/10 08:28:36;;;;;;;28.77;13.18;;;11.60;99.90;;;;;;5099119;28;20262;-68
2022/10/10 08:31:06;;;;;;;20.02;13.30;;;11.70;99.90;;;;;;5101377;28;20206;-74
2022/10/10 08:33:32;;;;;;;21.45;12.55;;;11.70;99.90;;;;;;5096456;28;20650;-69
2022/10/10 08:36:02;;;;;;;24.98;13.07;;;11.70;99.90;;;;;;5111469;28;20226;-72
2022/10/10 08:38:28;;;;;;;23.38;13.02;;;11.80;99.90;;;;;;5095541;28;20182;-73
2022/10/10 08:40:56;;;;;;;25.48;13.32;;;11.80;99.90;;;;;;5106961;28;20188;-71
2022/10/10 08:43:39;;;;;;;27.40;13.90;;;11.80;99.90;;;;;;5096077;28;20266;-72
2022/10/10 08:46:25;;;;;;;23.63;13.65;;;11.80;99.90;;;;;;5116982;28;20184;-77
2022/10/10 08:48:56;;;;;;;22.95;13.73;;;11.90;99.90;;;;;;5098791;28;20222;-75
2022/10/10 08:51:31;;;;;;;24.25;13.98;;;12.00;99.90;;;;;;5113986;28;20215;-69
2022/10/10 08:54:03;;;;;;;26.25;14.57;;;12.00;99.90;;;;;;5113798;28;20205;-76
2022/10/10 08:56:31;;;;;;;26.55;14.70;;;12.00;99.90;;;;;;5110776;28;20178;-72
2022/10/10 08:59:23;;;;;;;20.90;13.38;;;12.10;99.90;;;;;;5100729;28;20197;-78
2022/10/10 09:01:54;;;;;;;30.90;15.77;;;12.10;99.90;;;;;;5114740;28;20274;-70
2022/10/10 09:04:20;;;;;;;25.23;14.65;;;12.20;99.90;;;;;;5106528;28;20177;-72
2022/10/10 09:07:08;;;;;;;26.83;14.80;;;12.20;99.90;;;;;;5100459;28;20262;-76
2022/10/10 09:09:48;;;;;;;27.13;15.13;;;12.30;99.90;;;;;;5117604;28;20246;-78
2022/10/10 09:12:43;;;;;;;24.85;13.90;;;12.30;99.90;;;;;;5118063;28;20260;-68
2022/10/10 09:15:21;;;;;;;28.35;13.85;;;12.40;99.90;;;;;;5106563;28;20182;-78
2022/10/10 09:18:09;;;;;;;26.23;14.25;;;12.50;99.90;;;;;;5102871;28;20165;-73
2022/10/10 09:21:11;;;;;;;22.00;13.00;;;12.60;99.90;;;;;;5113297;28;20272;-78
2022/10/10 09:23:51;;;;;;;23.88;13.85;;;12.60;99.90;;;;;;5098731;28;20185;-69
2022/10/10 09:26:42;;;;;;;26.05;13.10;;;12.70;99.90;;;;;;5101706;28;20226;-75
2022/10/10 09:29:29;;;;;;;26.13;13.52;;;12.80;99.90;;;;;;5102958;28;20185;-77
2022/10/10 09:32:10;;;;;;;23.92;13.27;;;12.90;99.90;;;;;;5113372;28;20157;-78
2022/10/10 09:34:48;;;;;;;25.52;13.68;;;12.90;99.90;;;;;;5101990;28;20192;-69
2022/10/10 09:37:19;;;;;;;25.70;13.18;;;13.00;99.90;;;;;;5097673;28;20181;-76
2022/10/10 09:39:58;;;;;;;23.63;13.40;;;13.10;99.90;;;;;;5105438;28;20177;-75
2022/10/10 09:42:36;;;;;;;25.77;13.15;;;13.20;99.90;;;;;;5096813;28;20179;-69
2022/10/10 09:45:12;;;;;;;20.00;12.05;;;13.20;99.90;;;;;;5105943;28;20271;-69
2022/10/10 09:47:38;;;;;;;23.00;11.70;;;13.40;99.90;;;;;;5107147;28;20229;-69
2022/10/10 09:50:04;;;;;;;21.10;10.93;;;13.50;99.90;;;;;;5095223;28;20189;-70
2022/10/10 09:52:30;;;;;;;21.67;11.27;;;13.60;99.90;;;;;;5097404;28;20211;-65
2022/10/10 09:55:19;;;;;;;25.70;11.35;;;13.70;99.90;;;;;;5112680;28;20660;-73
2022/10/10 09:57:46;;;;;;;20.63;10.98;;;13.80;99.90;;;;;;5083144;28;20194;-72
2022/10/10 10:00:26;;;;;;;24.50;11.18;;;13.80;99.90;;;;;;5109580;28;20306;-70
2022/10/10 10:03:12;;;;;;;24.40;10.88;;;13.80;99.90;;;;;;5110961;28;20268;-70
2022/10/10 10:05:40;;;;;;;22.75;10.48;;;13.80;99.90;;;;;;5113418;27;20181;-71
2022/10/10 10:08:24;;;;;;;22.02;10.82;;;13.90;99.90;;;;;;5113313;28;20189;-72
2022/10/10 10:10:51;;;;;;;22.52;10.40;;;13.90;99.90;;;;;;5094908;28;20178;-65
2022/10/10 10:13:24;;;;;;;23.75;10.68;;;13.90;99.90;;;;;;5094319;28;20173;-68
2022/10/10 10:15:57;;;;;;;20.13;10.50;;;13.90;99.90;;;;;;5110686;28;20222;-68
2022/10/10 10:18:27;;;;;;;26.35;9.95;;;14.00;99.90;;;;;;5098706;28;20185;-69
2022/10/10 10:21:22;;;;;;;25.77;9.68;;;14.00;99.90;;;;;;5095462;28;20419;-66
2022/10/10 10:24:20;;;;;;;26.30;10.15;;;14.00;99.90;;;;;;5107543;28;20188;-67
2022/10/10 10:26:47;;;;;;;17.65;8.85;;;14.00;99.90;;;;;;5112713;28;20170;-66
2022/10/10 10:29:31;;;;;;;22.20;9.02;;;14.10;99.90;;;;;;5108446;28;20177;-66
2022/10/10 10:32:03;;;;;;;20.90;7.22;;;14.10;99.90;;;;;;5107429;28;20189;-63
2022/10/10 10:34:40;;;;;;;27.85;7.90;;;14.10;99.90;;;;;;5110200;28;20597;-65
2022/10/10 10:37:37;;;;;;;28.10;6.53;;;14.20;99.90;;;;;;5096139;28;20648;-66
2022/10/10 10:40:37;;;;;;;24.98;5.88;;;14.30;99.90;;;;;;5102312;28;20770;-68
2022/10/10 10:43:37;;;;;;;19.77;4.72;;;14.30;99.90;;;;;;5082211;28;20200;-69
2022/10/10 10:46:10;;;;;;;9.55;3.53;;;14.30;99.90;;;;;;5106059;28;20165;-69
2022/10/10 10:48:43;;;;;;;16.10;3.55;;;14.30;99.90;;;;;;5092775;28;20233;-68
2022/10/10 10:51:15;;;;;;;13.48;3.20;;;14.40;99.90;;;;;;5095447;28;20717;-67
2022/10/10 10:59:30;;;;;;;17.58;3.15;;;14.60;99.90;;;;;;5376133;23;20437;-65
2022/10/10 11:02:43;;;;;;;15.90;3.63;;;14.70;99.90;;;;;;5011319;28;20183;-66
2022/10/10 11:05:42;;;;;;;11.82;3.67;;;14.70;99.90;;;;;;5007788;28;20237;-66
2022/10/10 11:27:09;;;;;;;16.58;4.13;;;14.50;99.90;;;;;;5104067;27;20595;-49
2022/10/10 11:29:52;;;;;;;15.48;4.13;;;14.40;99.90;;;;;;5108370;28;20613;-53
2022/10/10 11:32:26;;;;;;;16.42;4.18;;;14.40;99.90;;;;;;5126642;27;20277;-53
2022/10/10 11:35:05;;;;;;;9.85;3.80;;;14.40;99.90;;;;;;5069450;28;20205;-51
2022/10/10 11:37:38;;;;;;;10.82;3.83;;;14.40;99.90;;;;;;5092057;28;20264;-55
2022/10/10 11:40:06;;;;;;;13.15;3.60;;;14.30;99.90;;;;;;5100311;28;20178;-54
2022/10/10 11:42:45;;;;;;;12.20;3.05;;;14.30;99.90;;;;;;5089847;28;20570;-53
2022/10/10 11:45:31;;;;;;;7.65;2.70;;;14.40;99.90;;;;;;5089265;28;20200;-52
2022/10/10 11:48:42;;;;;;;8.05;2.40;;;14.30;99.90;;;;;;5092409;28;20587;-55
2022/10/10 11:51:21;;;;;;;7.22;1.90;;;14.30;99.90;;;;;;5103324;28;20209;-55
2022/10/10 11:53:50;;;;;;;6.20;2.15;;;14.20;99.90;;;;;;5108302;28;20256;-55
2022/10/10 11:56:29;;;;;;;6.78;1.90;;;14.30;99.90;;;;;;5109880;28;20197;-52
2022/10/10 11:59:06;;;;;;;6.90;1.40;;;14.30;99.90;;;;;;5098814;28;20230;-54
2022/10/10 12:01:40;;;;;;;9.05;1.80;;;14.40;99.90;;;;;;5109852;28;20177;-52
2022/10/10 12:04:06;;;;;;;8.70;2.10;;;14.40;99.90;;;;;;5109940;28;20245;-53
2022/10/10 12:06:35;;;;;;;5.82;1.60;;;14.40;99.90;;;;;;5087464;28;20191;-54
2022/10/10 12:09:31;;;;;;;7.22;1.50;;;14.40;99.90;;;;;;5084675;28;20189;-53
2022/10/10 12:12:05;;;;;;;7.68;1.40;;;14.40;99.90;;;;;;5108586;28;20173;-52
2022/10/10 12:14:32;;;;;;;4.32;1.92;;;14.40;99.90;;;;;;5089734;28;20202;-55
2022/10/10 12:16:58;;;;;;;3.28;1.08;;;14.40;99.90;;;;;;5087181;28;20266;-55
2022/10/10 12:19:27;;;;;;;3.30;0.88;;;14.30;99.90;;;;;;5072888;28;20178;-58
2022/10/10 12:21:59;;;;;;;10.02;1.35;;;14.20;99.90;;;;;;5067640;28;20185;-56
2022/10/10 12:24:33;;;;;;;14.55;1.95;;;14.00;99.90;;;;;;5086034;28;20178;-55
2022/10/10 12:26:59;;;;;;;11.25;1.42;;;13.90;99.90;;;;;;5074924;28;20198;-55
2022/10/10 12:29:46;;;;;;;13.88;1.98;;;13.80;99.90;;;;;;5057006;28;20187;-62
2022/10/10 12:32:17;;;;;;;9.10;1.42;;;13.60;99.90;;;;;;5058315;28;20198;-55
2022/10/10 12:34:58;;;;;;;16.77;1.90;;;13.50;99.90;;;;;;5055389;28;20352;-59
2022/10/10 12:37:56;;;;;;;11.07;1.58;;;13.50;99.90;;;;;;5073878;28;20205;-56
2022/10/10 12:40:22;;;;;;;8.13;1.38;;;13.40;99.90;;;;;;5067050;28;20194;-56
2022/10/10 12:42:51;;;;;;;15.38;1.95;;;13.30;99.90;;;;;;5075667;28;20228;-56
2022/10/10 12:45:29;;;;;;;14.13;1.70;;;13.30;99.90;;;;;;5072835;28;20183;-58
2022/10/10 12:47:58;;;;;;;6.15;1.90;;;13.30;99.90;;;;;;5074971;28;20269;-57
2022/10/10 12:50:34;;;;;;;7.10;1.30;;;13.30;99.90;;;;;;5086105;28;20247;-57
2022/10/10 12:53:13;;;;;;;10.85;2.10;;;13.30;99.90;;;;;;5075424;28;20179;-58
2022/10/10 12:55:43;;;;;;;6.85;1.58;;;13.30;99.90;;;;;;5066908;28;20233;-57
2022/10/10 12:58:16;;;;;;;15.50;1.50;;;13.30;99.90;;;;;;5054102;28;20183;-58
2022/10/10 13:00:44;;;;;;;13.70;2.10;;;13.30;99.90;;;;;;5055977;28;20177;-59
2022/10/10 13:03:30;;;;;;;21.20;2.45;;;13.20;99.90;;;;;;5067126;28;20179;-60
2022/10/10 13:06:03;;;;;;;19.17;2.30;;;13.20;99.90;;;;;;5071263;28;20186;-59
2022/10/10 13:08:29;;;;;;;23.83;2.70;;;13.20;99.90;;;;;;5065676;28;20229;-61
2022/10/10 13:11:14;;;;;;;19.80;3.10;;;13.20;99.90;;;;;;5058583;28;21799;-62
2022/10/10 13:13:49;;;;;;;23.45;2.90;;;13.20;99.90;;;;;;5068949;28;20602;-60
2022/10/10 13:16:18;;;;;;;31.40;3.33;;;13.30;99.90;;;;;;5059761;28;20689;-61
2022/10/10 13:18:55;;;;;;;33.05;3.75;;;13.30;99.90;;;;;;5056721;28;20215;-60